createdAt,value
2023-01-13T00:01:41.903Z,100064.80
2023-01-13T00:06:41.744Z,100065.40
2023-01-13T00:11:41.160Z,100068.80
2023-01-13T00:16:40.313Z,100074.00
2023-01-13T00:21:39.367Z,100069.80
2023-01-13T00:26:38.471Z,100063.00
2023-01-13T00:31:37.994Z,100055.80
2023-01-13T00:36:37.315Z,100058.40
2023-01-13T00:41:50.089Z,100056.20
2023-01-13T00:46:49.323Z,100046.40
2023-01-13T00:51:48.906Z,100049.60
2023-01-13T00:56:48.296Z,100049.60
2023-01-13T01:01:47.870Z,100051.40
2023-01-13T01:06:47.129Z,100054.80
2023-01-13T01:11:46.861Z,100052.40
2023-01-13T01:16:46.616Z,100045.00
2023-01-13T01:21:45.304Z,100036.20
2023-01-13T01:26:44.737Z,100037.80
2023-01-13T01:31:44.900Z,100031.40
2023-01-13T01:36:44.403Z,100023.80
2023-01-13T01:42:03.684Z,100024.20
2023-01-13T01:47:05.079Z,100015.60
2023-01-13T01:52:10.642Z,100011.20
2023-01-13T01:57:17.165Z,99999.40
2023-01-13T02:02:17.771Z,99991.40
2023-01-13T02:07:17.924Z,99985.80
2023-01-13T02:12:33.336Z,99979.60
2023-01-13T02:17:53.150Z,99973.40
2023-01-13T02:24:22.745Z,99971.80
2023-01-13T02:30:05.953Z,99971.20
2023-01-13T02:35:15.995Z,99972.40
2023-01-13T02:40:26.502Z,99973.60
2023-01-13T02:45:33.877Z,99966.00
2023-01-13T02:50:40.912Z,99963.20
2023-01-13T02:55:47.911Z,99961.40
2023-01-13T03:00:49.628Z,99960.20
2023-01-13T03:05:53.721Z,99950.40
2023-01-13T03:11:05.417Z,99949.40
2023-01-13T03:16:18.442Z,99944.00
2023-01-13T03:21:27.261Z,99938.40
2023-01-13T03:26:37.511Z,99932.80
2023-01-13T03:31:45.533Z,99936.40
2023-01-13T03:36:47.560Z,99936.00
2023-01-13T03:41:54.814Z,99936.80
2023-01-13T03:47:05.176Z,99930.00
2023-01-13T03:52:10.072Z,99925.40
2023-01-13T03:57:14.741Z,99927.00
2023-01-13T04:02:26.185Z,99922.80
2023-01-13T04:07:39.139Z,99917.40
2023-01-13T04:13:05.322Z,99921.40
2023-01-13T04:18:22.039Z,99924.40
2023-01-13T04:23:23.043Z,99924.20
2023-01-13T04:28:23.833Z,99922.20
2023-01-13T04:33:23.661Z,99921.20
2023-01-13T04:38:24.581Z,99915.00
2023-01-13T04:43:23.610Z,99910.00
2023-01-13T04:48:22.830Z,99909.40
2023-01-13T04:53:22.195Z,99907.60
2023-01-13T04:58:22.730Z,99908.20
2023-01-13T05:03:21.776Z,99912.40
2023-01-13T05:08:21.132Z,99905.80
2023-01-13T05:13:38.344Z,99906.80
2023-01-13T05:18:38.286Z,99907.20
2023-01-13T05:23:55.827Z,99905.40
2023-01-13T05:28:55.162Z,99913.40
2023-01-13T05:33:53.964Z,99911.60
2023-01-13T05:38:54.506Z,99907.00
2023-01-13T05:43:54.348Z,99909.80
2023-01-13T05:48:54.027Z,99912.40
2023-01-13T05:53:54.877Z,99911.60
2023-01-13T05:58:55.641Z,99920.40
2023-01-13T06:04:01.447Z,99919.00
2023-01-13T06:09:03.639Z,99920.20
2023-01-13T06:14:04.683Z,99934.20
2023-01-13T06:19:09.332Z,99934.00
2023-01-13T06:24:13.260Z,99937.00
2023-01-13T06:29:16.940Z,99937.20
2023-01-13T06:34:19.428Z,99938.20
2023-01-13T06:39:24.469Z,99932.00
2023-01-13T06:44:26.646Z,99934.60
2023-01-13T06:49:25.508Z,99940.20
2023-01-13T06:54:26.347Z,99938.20
2023-01-13T06:59:27.432Z,99940.20
2023-01-13T07:04:27.556Z,99942.80
2023-01-13T07:09:27.000Z,99943.20
2023-01-13T07:14:44.053Z,99940.20
2023-01-13T07:19:44.253Z,99939.20
2023-01-13T07:24:46.132Z,99939.60
2023-01-13T07:29:46.352Z,99938.40
2023-01-13T07:34:45.985Z,99943.20
2023-01-13T07:39:46.706Z,99945.20
2023-01-13T07:44:46.091Z,99948.80
2023-01-13T07:49:47.339Z,99942.00
2023-01-13T07:54:46.624Z,99945.40
2023-01-13T07:59:46.250Z,99947.60
2023-01-13T08:04:45.238Z,99948.20
2023-01-13T08:09:45.012Z,99948.60
2023-01-13T08:14:45.259Z,99944.60
2023-01-13T08:19:44.320Z,99948.80
2023-01-13T08:24:43.632Z,99952.00
2023-01-13T08:29:42.469Z,99957.80
2023-01-13T08:34:43.210Z,99959.00
2023-01-13T08:39:42.165Z,99961.40
2023-01-13T08:44:42.029Z,99959.60
2023-01-13T08:49:41.235Z,99956.00
2023-01-13T08:54:43.152Z,99956.80
2023-01-13T08:59:44.589Z,99966.20
2023-01-13T09:04:44.794Z,99969.40
2023-01-13T09:09:44.963Z,99972.00
2023-01-13T09:14:44.695Z,99972.40
2023-01-13T09:19:44.635Z,99964.40
2023-01-13T09:24:43.606Z,99961.20
2023-01-13T09:29:43.433Z,99961.00
2023-01-13T09:35:03.106Z,99958.60
2023-01-13T09:40:03.183Z,99950.00
2023-01-13T09:45:12.581Z,99948.80
2023-01-13T09:50:34.979Z,99951.20
2023-01-13T09:55:39.429Z,99945.80
2023-01-13T10:00:47.357Z,99935.80
2023-01-13T10:05:57.528Z,99939.80
2023-01-13T10:11:01.375Z,99931.20
2023-01-13T10:16:26.497Z,99932.20
2023-01-13T10:21:56.114Z,99923.40
2023-01-13T10:27:05.036Z,99921.60
2023-01-13T10:32:05.401Z,99915.60
2023-01-13T10:37:07.682Z,99913.00
2023-01-13T10:42:14.416Z,99909.20
2023-01-13T10:47:27.197Z,99912.80
2023-01-13T10:52:33.662Z,99904.00
2023-01-13T10:57:39.717Z,99902.20
2023-01-13T11:02:40.433Z,99904.80
2023-01-13T11:07:42.918Z,99900.60
2023-01-13T11:12:55.110Z,99894.20
2023-01-13T11:18:03.143Z,99894.20
2023-01-13T11:23:12.800Z,99892.20
2023-01-13T11:28:40.160Z,99895.80
2023-01-13T11:33:49.408Z,99886.20
2023-01-13T11:38:55.285Z,99892.20
2023-01-13T11:44:00.953Z,99886.20
2023-01-13T11:49:01.632Z,99884.80
2023-01-13T11:54:28.088Z,99877.00
2023-01-13T11:59:56.395Z,99868.80
2023-01-13T12:05:10.470Z,99867.40
2023-01-13T12:10:19.408Z,99862.40
2023-01-13T12:16:02.835Z,99861.40
2023-01-13T12:21:20.631Z,99862.80
2023-01-13T12:26:22.036Z,99865.40
2023-01-13T12:31:24.156Z,99865.60
2023-01-13T12:36:36.247Z,99863.00
2023-01-13T12:42:00.537Z,99869.80
2023-01-13T12:47:03.248Z,99865.00
2023-01-13T12:52:22.263Z,99865.00
2023-01-13T12:57:28.354Z,99867.80
2023-01-13T13:02:42.263Z,99864.80
2023-01-13T13:07:49.670Z,99864.00
2023-01-13T13:13:23.563Z,99862.20
2023-01-13T13:18:35.692Z,99864.40
2023-01-13T13:24:05.711Z,99867.00
2023-01-13T13:29:35.590Z,99870.60
2023-01-13T13:34:48.270Z,99877.40
2023-01-13T13:40:06.404Z,99877.00
2023-01-13T13:45:35.291Z,99881.80
2023-01-13T13:50:35.251Z,99882.80
2023-01-13T13:55:35.633Z,99877.60
2023-01-13T14:00:39.803Z,99881.80
2023-01-13T14:05:41.141Z,99882.40
2023-01-13T14:10:45.486Z,99880.80
2023-01-13T14:15:46.050Z,99879.40
2023-01-13T14:20:53.727Z,99888.00
2023-01-13T14:25:54.884Z,99887.00
2023-01-13T14:30:55.583Z,99895.60
2023-01-13T14:36:19.338Z,99895.00
2023-01-13T14:41:27.046Z,99891.40
2023-01-13T14:46:27.214Z,99888.20
2023-01-13T14:51:32.941Z,99891.00
2023-01-13T14:56:55.341Z,99891.80
2023-01-13T15:01:55.648Z,99890.40
2023-01-13T15:06:58.784Z,99894.20
2023-01-13T15:11:59.003Z,99889.60
2023-01-13T15:16:59.005Z,99894.20
2023-01-13T15:21:58.032Z,99896.40
2023-01-13T15:26:57.775Z,99898.80
2023-01-13T15:31:58.581Z,99895.20
2023-01-13T15:36:58.063Z,99892.80
2023-01-13T15:42:15.637Z,99892.80
2023-01-13T15:47:17.649Z,99884.00
2023-01-13T15:52:26.018Z,99882.00
2023-01-13T15:57:29.329Z,99884.20
2023-01-13T16:02:29.972Z,99886.40
2023-01-13T16:07:30.105Z,99886.60
2023-01-13T16:12:29.915Z,99888.80
2023-01-13T16:17:32.282Z,99893.80
2023-01-13T16:22:32.650Z,99896.60
2023-01-13T16:27:32.044Z,99899.00
2023-01-13T16:32:51.130Z,99907.60
2023-01-13T16:37:51.239Z,99910.40
2023-01-13T16:42:52.315Z,99916.60
2023-01-13T16:47:51.959Z,99915.40
2023-01-13T16:52:51.428Z,99906.40
2023-01-13T16:57:52.440Z,99901.60
2023-01-13T17:02:52.472Z,99902.40
2023-01-13T17:07:52.443Z,99904.80
2023-01-13T17:12:52.277Z,99897.80
2023-01-13T17:17:53.098Z,99897.20
2023-01-13T17:22:58.265Z,99903.60
2023-01-13T17:27:58.882Z,99915.20
2023-01-13T17:32:58.271Z,99918.00
2023-01-13T17:37:58.068Z,99916.80
2023-01-13T17:42:57.591Z,99922.40
2023-01-13T17:48:00.481Z,99926.20
2023-01-13T17:52:59.946Z,99926.80
2023-01-13T17:58:02.402Z,99926.80
2023-01-13T18:03:02.056Z,99925.60
2023-01-13T18:08:01.216Z,99931.80
2023-01-13T18:13:00.484Z,99930.20
2023-01-13T18:18:00.505Z,99934.00
2023-01-13T18:23:18.035Z,99930.00
2023-01-13T18:28:17.204Z,99927.20
2023-01-13T18:33:16.149Z,99933.20
2023-01-13T18:38:15.891Z,99934.60
2023-01-13T18:43:15.704Z,99944.40
2023-01-13T18:48:16.676Z,99945.80
2023-01-13T18:53:17.180Z,99950.00
2023-01-13T18:58:20.499Z,99961.80
2023-01-13T19:03:30.099Z,99966.40
2023-01-13T19:08:33.866Z,99963.00
2023-01-13T19:13:33.219Z,99972.40
2023-01-13T19:18:35.842Z,99968.80
2023-01-13T19:23:35.729Z,99976.80
2023-01-13T19:28:35.545Z,99975.60
2023-01-13T19:33:39.255Z,99977.80
2023-01-13T19:38:45.379Z,99982.80
2023-01-13T19:44:03.383Z,99987.80
2023-01-13T19:49:03.053Z,99991.80
2023-01-13T19:54:03.062Z,99991.00
2023-01-13T19:59:14.523Z,100000.60
2023-01-13T20:04:17.264Z,100006.80
2023-01-13T20:09:17.513Z,100007.60
2023-01-13T20:14:17.662Z,100014.60
2023-01-13T20:19:17.405Z,100022.20
2023-01-13T20:24:20.200Z,100020.20
2023-01-13T20:29:18.913Z,100021.20
2023-01-13T20:34:19.989Z,100025.60
2023-01-13T20:39:22.773Z,100034.80
2023-01-13T20:44:22.930Z,100039.80
2023-01-13T20:49:24.829Z,100041.40
2023-01-13T20:54:26.061Z,100043.80
2023-01-13T20:59:25.110Z,100048.20
2023-01-13T21:04:24.843Z,100056.40
2023-01-13T21:09:26.850Z,100061.60
2023-01-13T21:14:46.419Z,100064.20
2023-01-13T21:19:45.867Z,100064.20
2023-01-13T21:24:45.321Z,100066.80
2023-01-13T21:29:44.793Z,100066.40
2023-01-13T21:34:45.005Z,100072.80
2023-01-13T21:39:45.077Z,100069.80
2023-01-13T21:45:01.499Z,100074.60
2023-01-13T21:50:00.698Z,100092.20
2023-01-13T21:55:13.394Z,100093.80
2023-01-13T22:00:21.646Z,100092.20
2023-01-13T22:05:26.521Z,100085.60
2023-01-13T22:10:30.028Z,100084.40
2023-01-13T22:15:31.496Z,100095.80
2023-01-13T22:20:31.178Z,100101.00
2023-01-13T22:25:30.601Z,100104.60
2023-01-13T22:30:32.479Z,100111.20
2023-01-13T22:35:32.437Z,100114.60
2023-01-13T22:40:31.758Z,100117.80
2023-01-13T22:45:31.957Z,100119.20
2023-01-13T22:50:31.169Z,100128.80
2023-01-13T22:55:30.805Z,100125.40
2023-01-13T23:00:30.385Z,100126.60
2023-01-13T23:05:31.571Z,100136.60
2023-01-13T23:10:31.041Z,100133.20
2023-01-13T23:15:31.081Z,100128.40
2023-01-13T23:20:31.131Z,100131.40
2023-01-13T23:25:30.626Z,100125.60
2023-01-13T23:30:30.191Z,100135.00
2023-01-13T23:35:30.541Z,100137.60
2023-01-13T23:40:30.118Z,100127.80
2023-01-13T23:45:29.244Z,100138.00
2023-01-13T23:50:28.785Z,100136.40
2023-01-13T23:55:28.656Z,100139.00
